Custom Search

Airport METAR Reports

 

YMAV - Avalon Airport, Australia
Distance from station: 0 0km
Updated: 20/10/2018 12:30
Mostly cloudy
Mostly cloudy
 Wind from W
Wind: W 13 km/h
Temperature: 16°C
Dew Point: 9°C
Humidity: 63%
Barometer: 1014 hPa
Clouds: Mostly cloudy
Visibility: 10 km
Cloud details: Partly cloudy 975 m
Mostly cloudy 1219 m
2018/10/20 01:30 YMAV 200130Z AUTO 26007KT 200V280 9999 // SCT032 BKN040 16/09 Q1014
YMML - Melbourne Intl A, Australia
Distance from station: NE 50km
Updated: 20/10/2018 12:30
Mostly cloudy
Mostly cloudy
 Wind from W
Wind: W 2 km/h
Temperature: 13°C
Dew Point: 9°C
Humidity: 77%
Barometer: 1014 hPa
Clouds: Mostly cloudy
Visibility: 10 km
Cloud details: Few Clouds 457 m
Partly cloudy 549 m
Mostly cloudy 762 m
2018/10/20 01:30 YMML 200130Z 26001KT 9999 FEW015 SCT018 BKN025 13/09 Q1014 TEMPO 0130/0300 BKN010
YMEN - Melbourne/Essend, Australia
Distance from station: NE 51km
Updated: 20/10/2018 12:00
Partly cloudy
Partly cloudy
 Wind from W
Wind: W 11 km/h
Temperature: 12°C
Dew Point: 11°C
Humidity: 94%
Barometer: 1015 hPa
Clouds: Partly cloudy
Visibility: 10 km
Cloud details: Partly cloudy 792 m
Partly cloudy 914 m
Partly cloudy 1189 m
2018/10/20 01:00 YMEN 200100Z AUTO 26006KT 9999 // SCT026 SCT030 SCT039 12/11 Q1015
 
YWGT - Wangaratta Arp, Australia
Distance from station: NE 241km
Updated: 20/10/2018 12:14
Light rain, Showers
Light rain, Showers
 Wind from SSW
Wind: SSW 35 km/h, Gust: 54 km/h
Temperature: 15°C
Dew Point: 10°C
Humidity: 72%
Barometer: 1012 hPa
Summary: Light rain, Showers
Visibility: 10 km
2018/10/20 01:14 YWGT 200114Z AUTO 21019G29KT 9999 -SHRA ////// 15/10 Q1012
YMAY - Albury Airport, Australia
Distance from station: NE 308km
Updated: 20/10/2018 12:30
Partly cloudy
Partly cloudy
 Wind from W
Wind: W 39 km/h, Gust: 59 km/h
Temperature: 21°C
Dew Point: 13°C
Humidity: 60%
Barometer: 1010 hPa
Clouds: Partly cloudy
Visibility: 10 km
Cloud details: Partly cloudy 1494 m
2018/10/20 01:30 YMAY 200130Z AUTO 27021G32KT 9999 // SCT049 21/13 Q1010
YMTG - Mount Gambier, Australia
Distance from station: W 326km
Updated: 20/10/2018 12:00
Mostly cloudy
Mostly cloudy
 Wind from WSW
Wind: WSW 28 km/h
Temperature: 14°C
Dew Point: 8°C
Humidity: 67%
Barometer: 1017 hPa
Clouds: Mostly cloudy
Visibility: 10 km
Cloud details: Partly cloudy 884 m
Partly cloudy 1036 m
Mostly cloudy 1189 m
2018/10/20 01:00 YMTG 200100Z AUTO 24015KT 9999 // SCT029 SCT034 BKN039 14/08 Q1017
 
YNAR - Narrandera, Australia
Distance from station: NNE 413km
Updated: 20/10/2018 12:00

 Wind from WSW
Wind: WSW 24 km/h
Temperature: 18°C
Dew Point: 10°C
Humidity: 60%
Barometer: 1012 hPa
2018/10/20 01:00 YNAR 200100Z AUTO 24013KT //// // ////// 18/10 Q1012
YSWG - Wagga Wagga(Cv/M, Australia
Distance from station: NE 418km
Updated: 20/10/2018 12:16
Mostly cloudy
Mostly cloudy
 Wind from W
Wind: W 35 km/h
Temperature: 26°C
Dew Point: 12°C
Humidity: 42%
Barometer: 1009 hPa
Clouds: Mostly cloudy
Visibility: 10 km
Cloud details: Mostly cloudy 1737 m
2018/10/20 01:16 YSWG 200116Z AUTO 27019KT 260V320 9999 // BKN057 26/12 Q1009
YCOM - Cooma Snowy Mtns, Australia
Distance from station: ENE 441km
Updated: 20/10/2018 12:15
Overcast
Overcast
 Wind from N
Wind: N 24 km/h
Temperature: 16°C
Dew Point: 10°C
Humidity: 68%
Barometer: 1011 hPa
Clouds: Overcast
Visibility: 8 km
Cloud details: Partly cloudy 1494 m
Mostly cloudy 2012 m
Overcast 2530 m
2018/10/20 01:15 YCOM 200115Z AUTO 36013KT 8000 // SCT049 BKN066 OVC083 16/10 Q1011
 
YGTH - Griffith Arpt, Australia
Distance from station: NNE 444km
Updated: 20/10/2018 12:00
Mostly cloudy
Mostly cloudy
 Wind from SW
Wind: SW 33 km/h
Temperature: 18°C
Dew Point: 9°C
Humidity: 56%
Barometer: 1013 hPa
Clouds: Mostly cloudy
Visibility: 10 km
Cloud details: Mostly cloudy 3658 m
2018/10/20 01:00 YGTH 200100Z AUTO 23018KT 9999 // BKN120 18/09 Q1013
YMLT - Launceston Airpo, Australia
Distance from station: SSE 451km
Updated: 20/10/2018 12:31
Mostly cloudy
Mostly cloudy
 Wind from N
Wind: N 22 km/h
Temperature: 13°C
Dew Point: 10°C
Humidity: 82%
Barometer: 1009 hPa
Clouds: Mostly cloudy
Visibility: 10 km
Cloud details: Mostly cloudy 335 m
Mostly cloudy 3353 m
2018/10/20 01:31 YMLT 200131Z AUTO 35012KT 9999 // BKN011 BKN110 13/10 Q1009
YMIA - Mildura Arpt, Australia
Distance from station: NNW 474km
Updated: 20/10/2018 12:00
Partly cloudy
Partly cloudy
 Wind from SSW
Wind: SSW 22 km/h
Temperature: 18°C
Dew Point: 3°C
Humidity: 37%
Barometer: 1017 hPa
Clouds: Partly cloudy
Visibility: 10 km
Cloud details: Partly cloudy 1646 m
2018/10/20 01:00 YMIA 200100Z AUTO 20012KT 9999 // SCT054 18/03 Q1017
 
YMER - Merimbula Arpt, Australia
Distance from station: ENE 494km
Updated: 20/10/2018 12:00
Clear
Clear
 Wind from ENE
Wind: ENE 11 km/h
Temperature: 21°C
Dew Point: 14°C
Humidity: 64%
Barometer: 1008 hPa
Clouds: Clear
Visibility: 10 km
2018/10/20 01:00 YMER 200100Z AUTO 06006KT 040V100 9999 // NCD 21/14 Q1008
YSCB - Canberra (civ/Mi, Australia
Distance from station: NE 518km
Updated: 20/10/2018 12:30
Light thunderstorm, Rain, Few clouds
Light thunderstorm, Rain, Few clouds
 Wind from WNW
Wind: WNW 31 km/h, Gust: 52 km/h
Temperature: 17°C
Dew Point: 13°C
Humidity: 77%
Barometer: 1013 hPa
Summary: Light thunderstorm, Rain
Clouds: Few Clouds
Visibility: 6 km
Cloud details: Few Clouds 671 m
Partly cloudy 1067 m
Mostly cloudy 3658 m
Few Clouds 1372 m
2018/10/20 01:30 YSCB 200130Z 29017G28KT 6000 -TSRA FEW022 SCT035 BKN120 FEW045CB 17/13 Q1013
YMHB - Hobart/Tasmania, Australia
Distance from station: SSE 590km
Updated: 20/10/2018 12:30
Partly cloudy
Partly cloudy
 Wind from W
Wind: W 22 km/h
Temperature: 18°C
Dew Point: 4°C
Humidity: 40%
Barometer: 1008 hPa
Clouds: Partly cloudy
Visibility: 10 km
Cloud details: Few Clouds 1372 m
Partly cloudy 8534 m
2018/10/20 01:30 YMHB 200130Z 26012KT 9999 FEW045 SCT280 18/04 Q1008 RF00.0/000.0